Time;durP1;ratioP1;P1;durP2;ratioP2;P2;SDS_P1;SDS_P2;PMS_P1;PMS_P2;Temp;Humidity;BMP_temperature;BMP_pressure;BME280_temperature;BME280_humidity;BME280_pressure;Samples;Min_cycle;Max_cycle;Signal;HPM_P1;HPM_P2
2022/03/29 00:02:24;;;;;;;21.02;7.82;;;;;;;14.41;46.96;101597.41;5066210;28;20052;-59
2022/03/29 00:04:52;;;;;;;15.32;8.10;;;;;;;14.39;46.88;101600.34;5065784;28;20132;-59
2022/03/29 00:07:22;;;;;;;14.98;7.00;;;;;;;14.37;47.39;101586.22;5064588;28;20064;-60
2022/03/29 00:09:49;;;;;;;18.92;7.68;;;;;;;14.34;47.42;101590.22;5064500;28;20041;-58
2022/03/29 00:12:17;;;;;;;15.15;6.82;;;;;;;14.35;47.59;101591.03;5058735;28;20148;-60
2022/03/29 00:14:45;;;;;;;16.05;7.28;;;;;;;14.32;47.01;101588.78;5063804;28;20072;-58
2022/03/29 00:17:12;;;;;;;19.63;7.60;;;;;;;14.31;47.32;101589.84;5064086;28;20128;-59
2022/03/29 00:19:40;;;;;;;21.10;9.20;;;;;;;14.29;47.36;101591.94;5061307;28;20080;-59
2022/03/29 00:22:08;;;;;;;19.75;7.78;;;;;;;14.26;47.51;101590.53;5064927;28;20045;-59
2022/03/29 00:24:37;;;;;;;16.27;7.75;;;;;;;14.24;47.87;101589.09;5064180;28;20045;-59
2022/03/29 00:27:05;;;;;;;22.92;8.77;;;;;;;14.22;47.66;101583.09;5059836;28;20069;-59
2022/03/29 00:29:33;;;;;;;23.13;8.77;;;;;;;14.20;48.05;101577.91;5059756;28;20084;-59
2022/03/29 00:32:01;;;;;;;20.02;8.48;;;;;;;14.19;47.82;101581.69;5064782;28;20095;-59
2022/03/29 00:34:29;;;;;;;15.23;8.68;;;;;;;14.17;48.20;101572.13;5058071;28;20426;-59
2022/03/29 00:36:56;;;;;;;18.92;8.13;;;;;;;14.15;48.22;101569.66;5061865;28;20088;-59
2022/03/29 00:39:24;;;;;;;18.13;9.30;;;;;;;14.13;47.97;101577.19;5059182;28;20083;-59
2022/03/29 00:41:53;;;;;;;23.00;9.73;;;;;;;14.12;48.29;101563.88;5060751;28;20045;-58
2022/03/29 00:44:30;;;;;;;19.60;9.90;;;;;;;14.11;48.07;101564.94;5062163;28;20045;-58
2022/03/29 00:46:59;;;;;;;18.48;8.95;;;;;;;14.09;48.13;101557.06;5063771;28;20076;-59
2022/03/29 00:49:27;;;;;;;19.13;8.75;;;;;;;14.08;48.22;101547.31;5062958;28;20082;-59
2022/03/29 00:51:58;;;;;;;22.05;11.52;;;;;;;14.06;48.53;101546.69;5062706;28;20078;-59
2022/03/29 00:54:26;;;;;;;22.05;10.73;;;;;;;14.06;48.69;101543.19;5060981;28;20103;-59
2022/03/29 00:56:57;;;;;;;24.83;10.20;;;;;;;14.04;48.41;101545.28;5059847;28;20139;-59
2022/03/29 00:59:26;;;;;;;19.17;9.07;;;;;;;14.02;48.79;101538.22;5059089;28;20056;-59
2022/03/29 01:01:56;;;;;;;21.45;10.25;;;;;;;14.01;48.75;101541.97;5063010;28;20072;-59
2022/03/29 01:04:25;;;;;;;18.42;10.20;;;;;;;14.00;48.72;101536.81;5068909;28;20056;-59
2022/03/29 01:06:54;;;;;;;19.92;9.88;;;;;;;13.96;48.55;101528.31;5068234;28;20116;-59
2022/03/29 01:09:22;;;;;;;20.65;10.73;;;;;;;13.98;48.80;101520.00;5068477;28;20505;-59
2022/03/29 01:11:50;;;;;;;17.60;10.95;;;;;;;13.98;48.44;101523.53;5059309;28;20053;-58
2022/03/29 01:14:20;;;;;;;22.23;11.05;;;;;;;13.99;48.87;101529.75;5065962;28;20123;-59
2022/03/29 01:19:39;;;;;;;20.48;10.63;;;;;;;13.96;48.84;101524.78;5050073;28;20069;-59
2022/03/29 01:22:10;;;;;;;18.63;10.60;;;;;;;13.94;48.91;101508.81;5068189;28;20079;-58
2022/03/29 01:24:41;;;;;;;18.92;10.93;;;;;;;13.94;48.60;101513.38;5064989;28;20106;-59
2022/03/29 01:27:10;;;;;;;20.50;11.75;;;;;;;13.93;49.31;101514.44;5060605;28;20087;-57
2022/03/29 01:29:39;;;;;;;19.35;11.75;;;;;;;13.91;48.89;101511.13;5064778;28;20057;-59
2022/03/29 01:32:09;;;;;;;19.00;11.35;;;;;;;13.91;49.08;101519.25;5060854;28;20045;-59
2022/03/29 01:34:40;;;;;;;22.85;12.00;;;;;;;13.88;48.78;101514.28;5060377;28;20076;-59
2022/03/29 01:37:10;;;;;;;18.83;11.05;;;;;;;13.87;49.42;101509.94;5060583;28;20044;-59
2022/03/29 01:39:38;;;;;;;26.63;11.85;;;;;;;13.88;49.19;101511.59;5062572;28;20545;-57
2022/03/29 01:42:07;;;;;;;24.20;12.35;;;;;;;13.86;49.10;101497.53;5060161;28;20145;-58
2022/03/29 01:44:34;;;;;;;19.33;11.98;;;;;;;13.65;49.56;101471.81;5058691;28;20088;-58
2022/03/29 01:47:02;;;;;;;25.70;13.13;;;;;;;13.80;49.31;101498.44;5048509;28;20076;-58
2022/03/29 01:49:31;;;;;;;25.60;13.02;;;;;;;13.80;49.46;101498.44;5062249;28;20087;-58
2022/03/29 01:51:59;;;;;;;18.25;11.35;;;;;;;13.78;49.45;101495.13;5057389;28;20049;-58
2022/03/29 01:54:28;;;;;;;24.75;12.90;;;;;;;13.78;49.38;101490.56;5059901;28;20430;-59
2022/03/29 01:56:56;;;;;;;22.30;13.00;;;;;;;13.75;49.60;101485.59;5056606;28;20063;-59
2022/03/29 01:59:24;;;;;;;21.00;11.82;;;;;;;13.74;49.70;101491.22;5058889;28;20060;-59
2022/03/29 02:01:52;;;;;;;23.42;12.52;;;;;;;13.73;49.78;101476.06;5059761;28;20080;-59
2022/03/29 02:04:20;;;;;;;23.55;13.38;;;;;;;13.70;49.33;101471.94;5050927;28;20375;-61
2022/03/29 02:06:47;;;;;;;26.80;12.15;;;;;;;13.70;49.85;101479.22;5062367;28;20049;-58
2022/03/29 02:09:15;;;;;;;21.45;11.75;;;;;;;13.68;49.74;101471.34;5061936;28;20044;-61
2022/03/29 02:11:44;;;;;;;21.55;12.68;;;;;;;13.66;49.59;101479.69;5057997;28;20081;-61
2022/03/29 02:14:12;;;;;;;21.23;12.77;;;;;;;13.65;49.83;101474.50;5052048;28;20073;-61
2022/03/29 02:16:40;;;;;;;20.13;11.90;;;;;;;13.64;49.94;101462.06;5062958;28;20079;-60
2022/03/29 02:19:08;;;;;;;27.10;13.27;;;;;;;13.62;49.84;101472.25;5062039;28;20117;-60
2022/03/29 02:21:35;;;;;;;27.35;13.80;;;;;;;13.61;50.06;101465.22;5057956;28;20127;-61
2022/03/29 02:24:03;;;;;;;20.25;12.52;;;;;;;13.59;49.97;101459.22;5059031;28;20077;-59
2022/03/29 02:26:31;;;;;;;23.67;13.95;;;;;;;13.57;50.03;101456.72;5063049;28;20049;-61
2022/03/29 02:29:00;;;;;;;20.38;12.05;;;;;;;13.56;49.75;101448.84;5062521;28;20077;-60
2022/03/29 02:31:28;;;;;;;21.45;12.90;;;;;;;13.54;50.17;101448.25;5059777;28;20714;-60
2022/03/29 02:33:56;;;;;;;18.77;12.85;;;;;;;13.53;50.14;101441.22;5058810;28;20099;-60
2022/03/29 02:36:23;;;;;;;24.75;13.68;;;;;;;13.50;50.29;101442.50;5071195;28;20072;-60
2022/03/29 02:38:51;;;;;;;21.92;13.95;;;;;;;13.50;50.16;101441.66;5062307;28;20072;-62
2022/03/29 02:41:19;;;;;;;20.55;14.80;;;;;;;13.49;50.46;101434.63;5060798;28;20387;-60
2022/03/29 02:43:46;;;;;;;22.23;13.77;;;;;;;13.48;49.84;101428.38;5061880;28;20111;-61
2022/03/29 02:46:15;;;;;;;26.23;13.75;;;;;;;13.48;49.94;101432.97;5061883;28;20080;-60
2022/03/29 02:48:43;;;;;;;21.55;13.30;;;;;;;13.46;50.20;101422.38;5059457;28;20055;-60
2022/03/29 02:51:11;;;;;;;22.50;14.05;;;;;;;13.46;50.03;101425.09;5047786;28;20072;-60
2022/03/29 02:53:39;;;;;;;22.92;13.68;;;;;;;13.45;50.49;101422.63;5045266;28;20049;-61
2022/03/29 02:56:06;;;;;;;26.17;15.32;;;;;;;13.44;50.26;101419.09;5058705;28;20049;-59
2022/03/29 02:58:34;;;;;;;24.42;13.60;;;;;;;13.44;50.43;101418.28;5061185;28;20398;-60
2022/03/29 03:01:02;;;;;;;26.13;14.57;;;;;;;13.42;50.41;101414.97;5058623;28;20052;-61
2022/03/29 03:03:31;;;;;;;25.33;13.50;;;;;;;13.41;50.41;101411.44;5060140;28;20049;-61
2022/03/29 03:06:00;;;;;;;23.65;13.25;;;;;;;13.39;50.70;101402.75;5057689;28;20109;-61
2022/03/29 03:08:28;;;;;;;22.77;14.45;;;;;;;13.39;50.44;101408.16;5053089;28;20131;-61
2022/03/29 03:10:55;;;;;;;24.08;14.57;;;;;;;13.39;50.49;101407.31;5062448;28;20068;-61
2022/03/29 03:13:23;;;;;;;23.92;14.73;;;;;;;13.37;50.83;101404.84;5057160;28;20072;-60
2022/03/29 03:15:51;;;;;;;25.73;15.60;;;;;;;13.35;50.94;101396.97;5055360;28;20064;-60
2022/03/29 03:18:19;;;;;;;25.90;15.18;;;;;;;13.35;50.42;101402.38;5051341;28;20081;-59
2022/03/29 03:20:47;;;;;;;21.67;14.93;;;;;;;13.32;50.46;101400.13;5062296;28;20095;-60
2022/03/29 03:23:15;;;;;;;23.70;15.10;;;;;;;13.32;50.50;101394.72;5060557;28;20498;-59
2022/03/29 03:25:43;;;;;;;27.67;15.63;;;;;;;13.32;50.83;101396.59;5062638;28;20045;-60
2022/03/29 03:28:10;;;;;;;25.38;15.00;;;;;;;13.31;50.46;101397.66;5062356;28;20053;-60
2022/03/29 03:30:38;;;;;;;23.20;15.10;;;;;;;13.27;50.79;101389.19;5052189;28;20514;-60
2022/03/29 03:33:06;;;;;;;23.38;15.25;;;;;;;13.28;50.49;101384.63;5060793;28;20088;-61
2022/03/29 03:35:34;;;;;;;24.05;15.52;;;;;;;13.26;50.57;101384.84;5050955;28;20113;-61
2022/03/29 03:38:03;;;;;;;24.60;15.82;;;;;;;13.25;50.83;101385.06;5054498;28;20079;-61
2022/03/29 03:40:31;;;;;;;22.27;16.35;;;;;;;13.23;50.83;101387.16;5062395;28;20132;-60
2022/03/29 03:43:00;;;;;;;23.90;15.52;;;;;;;13.21;50.78;101382.00;5054422;28;20125;-60
2022/03/29 03:45:28;;;;;;;22.48;15.05;;;;;;;13.21;50.39;101382.00;5061828;28;20079;-60
2022/03/29 03:47:56;;;;;;;26.35;16.05;;;;;;;13.20;51.08;101374.13;5061602;28;20051;-60
2022/03/29 03:50:24;;;;;;;25.52;16.08;;;;;;;13.18;51.08;101373.53;5054660;28;20106;-61
2022/03/29 03:52:53;;;;;;;24.70;16.95;;;;;;;13.16;51.06;101371.06;5059783;28;20063;-60
2022/03/29 03:55:22;;;;;;;26.75;17.25;;;;;;;13.14;51.16;101367.72;5059476;28;20057;-60
2022/03/29 03:57:50;;;;;;;24.83;16.48;;;;;;;13.14;51.16;101369.59;5059260;28;20061;-60
2022/03/29 04:00:21;;;;;;;25.42;16.60;;;;;;;13.12;51.04;101361.72;5061675;28;20069;-60
2022/03/29 04:02:50;;;;;;;25.58;16.65;;;;;;;13.12;50.85;101359.03;5057052;28;20056;-61
2022/03/29 04:05:19;;;;;;;23.55;16.13;;;;;;;13.11;50.90;101368.16;5059933;28;20045;-61
2022/03/29 04:07:47;;;;;;;24.02;17.20;;;;;;;13.09;51.05;101358.66;5048909;28;20068;-60
2022/03/29 04:10:14;;;;;;;26.05;17.27;;;;;;;13.05;51.02;101355.59;5049286;28;20065;-60
2022/03/29 04:12:43;;;;;;;24.65;17.45;;;;;;;13.03;51.14;101353.09;5058031;28;20064;-60
2022/03/29 04:15:12;;;;;;;27.83;18.05;;;;;;;13.00;51.58;101345.47;5054929;28;20101;-59
2022/03/29 04:17:40;;;;;;;27.77;17.85;;;;;;;13.00;51.43;101348.16;5059666;28;20064;-60
2022/03/29 04:20:09;;;;;;;25.33;17.42;;;;;;;12.99;51.21;101341.13;5055387;28;20356;-60
2022/03/29 04:22:37;;;;;;;30.33;18.95;;;;;;;12.98;51.46;101346.75;5067411;28;20120;-60
2022/03/29 04:25:06;;;;;;;25.20;18.90;;;;;;;12.94;51.79;101338.28;5065028;28;20076;-60
2022/03/29 04:27:33;;;;;;;27.63;19.23;;;;;;;12.95;51.81;101336.41;5058551;28;20048;-60
2022/03/29 04:30:03;;;;;;;29.63;19.55;;;;;;;12.93;51.46;101338.50;5056695;28;20073;-60
2022/03/29 04:32:31;;;;;;;30.75;20.17;;;;;;;12.92;51.61;101331.44;5057255;28;20477;-59
2022/03/29 04:34:58;;;;;;;26.42;18.58;;;;;;;12.92;51.57;101323.34;5055586;28;20049;-60
2022/03/29 04:37:26;;;;;;;31.10;18.27;;;;;;;12.92;51.32;101331.44;5054431;28;20045;-60
2022/03/29 04:39:54;;;;;;;29.77;20.30;;;;;;;12.90;51.44;101328.97;5062440;28;20045;-60
2022/03/29 04:42:22;;;;;;;27.52;19.83;;;;;;;12.90;51.58;101339.78;5060907;28;20088;-61
2022/03/29 04:44:49;;;;;;;28.20;19.83;;;;;;;12.89;51.46;101324.63;5060658;28;20065;-60
2022/03/29 04:47:18;;;;;;;32.40;18.92;;;;;;;12.88;51.43;101325.69;5063197;28;20076;-60
2022/03/29 04:49:46;;;;;;;26.80;19.60;;;;;;;12.87;51.28;101329.44;5064684;28;20037;-60
2022/03/29 04:52:14;;;;;;;30.23;19.38;;;;;;;12.87;51.39;101328.59;5054984;28;20087;-60
2022/03/29 04:54:42;;;;;;;27.40;19.58;;;;;;;12.85;51.74;101325.31;5065019;28;20075;-60
2022/03/29 04:57:10;;;;;;;27.85;19.00;;;;;;;12.84;51.56;101324.50;5063471;28;20080;-59
2022/03/29 04:59:37;;;;;;;28.35;20.00;;;;;;;12.84;51.34;101324.50;5062559;28;20079;-60
2022/03/29 05:02:05;;;;;;;26.50;20.25;;;;;;;12.83;51.51;101325.53;5056793;28;20064;-59
2022/03/29 05:04:34;;;;;;;27.88;19.95;;;;;;;12.81;51.49;101335.72;5060200;28;20190;-59
2022/03/29 05:07:02;;;;;;;28.35;20.15;;;;;;;12.80;51.40;101327.84;5069352;28;20064;-58
2022/03/29 05:09:30;;;;;;;30.60;19.52;;;;;;;12.79;51.23;101321.63;5045446;28;20459;-61
2022/03/29 05:11:59;;;;;;;27.88;19.55;;;;;;;12.78;51.41;101321.88;5044683;28;20073;-60
2022/03/29 05:14:26;;;;;;;30.33;20.45;;;;;;;12.76;51.51;101310.47;5058760;28;20053;-59
2022/03/29 05:16:55;;;;;;;31.42;20.42;;;;;;;12.77;51.61;101312.13;5063045;28;20056;-61
2022/03/29 05:19:22;;;;;;;29.92;20.45;;;;;;;12.74;51.48;101313.41;5063627;28;20092;-61
2022/03/29 05:21:51;;;;;;;30.65;20.13;;;;;;;12.73;51.50;101310.94;5065124;28;20128;-60
2022/03/29 05:24:19;;;;;;;28.35;20.35;;;;;;;12.72;51.75;101302.00;5060458;28;20053;-59
2022/03/29 05:26:47;;;;;;;28.30;19.95;;;;;;;12.72;51.70;101304.72;5061083;28;20041;-60
2022/03/29 05:29:14;;;;;;;32.63;20.13;;;;;;;12.70;51.41;101302.22;5061227;28;20175;-62
2022/03/29 05:31:42;;;;;;;31.25;21.10;;;;;;;12.68;51.72;101307.03;5057738;28;20087;-62
2022/03/29 05:34:14;;;;;;;29.35;20.95;;;;;;;12.64;51.55;101300.44;5050909;28;20060;-61
2022/03/29 05:36:45;;;;;;;33.20;22.10;;;;;;;12.66;51.60;101294.81;5061640;28;20045;-61
2022/03/29 05:39:14;;;;;;;31.70;21.85;;;;;;;12.64;51.75;101299.59;5064383;28;20186;-64
2022/03/29 05:41:42;;;;;;;31.58;22.33;;;;;;;12.62;51.83;101307.94;5056225;28;20097;-62
2022/03/29 05:44:10;;;;;;;35.13;22.50;;;;;;;12.59;51.95;101304.84;5063160;28;20068;-63
2022/03/29 05:49:24;;;;;;;28.65;22.40;;;;;;;12.57;51.73;101305.06;5063196;28;20049;-64
2022/03/29 05:51:52;;;;;;;29.92;21.63;;;;;;;12.44;51.88;101282.81;5063743;28;20075;-63
2022/03/29 05:54:21;;;;;;;29.00;21.70;;;;;;;12.56;51.84;101306.13;5064303;28;20076;-64
2022/03/29 05:56:49;;;;;;;30.63;22.17;;;;;;;12.54;52.19;101304.69;5061802;28;20072;-63
2022/03/29 05:59:17;;;;;;;34.63;23.10;;;;;;;12.54;52.42;101299.31;5060054;28;20073;-64
2022/03/29 06:01:45;;;;;;;28.30;21.77;;;;;;;12.49;52.06;101305.38;4708063;28;10000404;-64
2022/03/29 06:04:12;;;;;;;30.98;22.80;;;;;;;12.51;52.16;101305.16;5057860;28;20126;-63
2022/03/29 06:06:41;;;;;;;33.50;23.08;;;;;;;12.48;52.36;101308.28;5054410;28;20102;-62
2022/03/29 06:09:08;;;;;;;33.10;23.27;;;;;;;12.45;52.38;101298.78;5051815;28;20513;-63
2022/03/29 06:11:38;;;;;;;30.77;21.58;;;;;;;12.44;52.08;101307.91;5058509;28;20055;-64
2022/03/29 06:14:05;;;;;;;31.98;22.92;;;;;;;12.41;52.41;101302.13;5056787;28;20068;-63
2022/03/29 06:16:33;;;;;;;30.55;22.27;;;;;;;12.39;52.38;101305.06;5062139;28;20087;-64
2022/03/29 06:19:01;;;;;;;33.58;22.83;;;;;;;12.34;52.87;101304.91;5062249;28;20387;-64
2022/03/29 06:21:29;;;;;;;33.00;23.55;;;;;;;12.33;52.78;101301.38;5063328;28;20041;-63
2022/03/29 06:23:56;;;;;;;33.63;24.02;;;;;;;12.31;52.53;101305.34;5052205;28;20073;-64
2022/03/29 06:26:24;;;;;;;33.55;25.17;;;;;;;12.34;52.81;101304.91;5057684;28;20092;-63
2022/03/29 06:28:53;;;;;;;32.58;23.40;;;;;;;12.34;52.66;101303.03;5063106;28;20045;-64
2022/03/29 06:31:21;;;;;;;36.92;26.13;;;;;;;12.35;52.45;101304.69;5063502;28;20091;-63
2022/03/29 06:33:49;;;;;;;36.50;24.92;;;;;;;12.33;52.51;101306.78;5057318;28;20049;-65
2022/03/29 06:36:17;;;;;;;35.97;25.55;;;;;;;12.32;52.75;101305.13;5062972;28;20072;-64
2022/03/29 06:38:45;;;;;;;39.50;26.13;;;;;;;12.30;52.63;101304.50;5058835;28;20084;-65
2022/03/29 06:41:14;;;;;;;36.33;25.13;;;;;;;12.31;52.67;101306.16;5062475;28;20084;-64
2022/03/29 06:43:42;;;;;;;32.85;23.67;;;;;;;12.31;52.41;101311.56;5061380;28;20052;-63
2022/03/29 06:46:11;;;;;;;39.17;26.88;;;;;;;12.33;52.35;101314.03;5043889;28;20076;-63
2022/03/29 06:48:41;;;;;;;33.95;24.27;;;;;;;12.32;52.22;101312.38;5043528;28;20148;-63
2022/03/29 06:51:10;;;;;;;43.63;26.95;;;;;;;12.32;52.52;101315.06;5063147;28;20098;-63
2022/03/29 06:53:38;;;;;;;38.50;26.75;;;;;;;12.27;53.11;101299.56;5062174;28;20088;-63
2022/03/29 06:56:07;;;;;;;40.30;27.25;;;;;;;12.30;52.69;101303.69;5062467;28;20045;-63
2022/03/29 06:58:34;;;;;;;38.75;27.63;;;;;;;12.28;52.70;101298.53;5062078;28;20486;-63
2022/03/29 07:01:03;;;;;;;40.05;27.17;;;;;;;12.28;52.71;101298.53;5063530;28;20108;-64
2022/03/29 07:03:35;;;;;;;38.92;26.83;;;;;;;12.28;52.75;101297.69;5073713;28;20059;-63
2022/03/29 07:06:04;;;;;;;43.35;28.00;;;;;;;12.27;52.86;101293.34;5061648;28;20189;-64
2022/03/29 07:08:32;;;;;;;40.97;27.35;;;;;;;12.27;52.99;101280.69;5061919;28;20045;-64
2022/03/29 07:11:19;;;;;;;46.72;28.92;;;;;;;12.25;52.76;101285.50;5062123;28;20057;-61
2022/03/29 07:13:47;;;;;;;40.92;28.20;;;;;;;12.25;52.90;101290.06;5062426;28;20053;-64
2022/03/29 07:16:15;;;;;;;41.63;28.35;;;;;;;12.23;52.93;101284.88;5060578;28;20144;-65
2022/03/29 07:18:49;;;;;;;43.75;29.52;;;;;;;12.21;53.11;101291.53;5062689;28;20045;-64
2022/03/29 07:21:16;;;;;;;45.92;29.77;;;;;;;12.14;53.57;101278.13;5062300;28;20040;-63
2022/03/29 07:23:44;;;;;;;46.25;29.60;;;;;;;12.19;53.23;101288.25;5062580;28;20044;-62
2022/03/29 07:26:12;;;;;;;53.20;31.58;;;;;;;12.19;53.28;101291.75;5062095;28;20053;-62
2022/03/29 07:28:40;;;;;;;49.30;31.90;;;;;;;12.18;53.57;101290.13;5046700;28;21126;-62
2022/03/29 07:31:07;;;;;;;48.22;31.13;;;;;;;12.19;53.57;101290.94;5061708;28;20044;-63
2022/03/29 07:33:35;;;;;;;46.58;30.75;;;;;;;12.19;53.29;101285.56;5042840;28;20557;-64
2022/03/29 07:36:05;;;;;;;45.30;30.13;;;;;;;12.18;53.49;101292.81;5050636;28;20060;-64
2022/03/29 07:38:33;;;;;;;49.47;32.47;;;;;;;12.17;53.36;101293.84;5061531;28;20048;-64
2022/03/29 07:41:01;;;;;;;52.83;30.95;;;;;;;12.19;53.44;101304.41;5058807;28;20054;-64
2022/03/29 07:43:29;;;;;;;52.25;33.53;;;;;;;12.17;53.76;101320.81;5045693;28;20064;-64
2022/03/29 07:45:57;;;;;;;51.60;32.03;;;;;;;12.18;53.66;101327.84;5044860;28;20053;-64
2022/03/29 07:48:25;;;;;;;52.83;33.53;;;;;;;12.16;53.87;101329.94;5061132;28;20052;-64
2022/03/29 07:51:14;;;;;;;51.40;32.22;;;;;;;12.17;53.56;101331.59;5060820;28;20131;-63
2022/03/29 07:53:42;;;;;;;51.95;32.63;;;;;;;12.18;53.68;101327.03;5061243;28;20073;-63
2022/03/29 07:56:09;;;;;;;52.72;32.72;;;;;;;12.18;53.53;101327.03;5064326;28;20049;-64
2022/03/29 07:58:37;;;;;;;47.72;32.33;;;;;;;12.18;53.56;101329.72;5065033;28;20057;-63
2022/03/29 08:01:05;;;;;;;53.08;33.67;;;;;;;12.15;53.79;101322.91;5065975;28;20162;-64
2022/03/29 08:03:33;;;;;;;55.13;33.60;;;;;;;12.15;53.98;101333.69;5066250;28;20045;-63
2022/03/29 08:06:03;;;;;;;49.60;32.30;;;;;;;12.16;53.88;101329.94;5065903;28;20531;-63
2022/03/29 08:08:34;;;;;;;52.80;34.03;;;;;;;12.11;54.22;101321.72;5065560;28;20131;-63
2022/03/29 08:11:03;;;;;;;53.35;34.25;;;;;;;12.15;54.18;101324.75;5065582;28;20045;-63
2022/03/29 08:13:31;;;;;;;54.45;33.33;;;;;;;12.15;53.56;101319.38;5065891;28;20140;-63
2022/03/29 08:16:01;;;;;;;54.70;33.85;;;;;;;12.16;53.76;101315.63;5075328;28;20068;-62
2022/03/29 08:18:30;;;;;;;51.50;32.58;;;;;;;12.16;53.67;101312.94;5066326;28;20053;-64
2022/03/29 08:20:58;;;;;;;57.50;33.83;;;;;;;12.16;53.96;101310.25;5077017;28;20150;-63
2022/03/29 08:23:26;;;;;;;51.92;34.17;;;;;;;12.16;53.75;101315.63;5062651;28;20049;-65
2022/03/29 08:25:55;;;;;;;52.75;33.42;;;;;;;12.17;53.74;101318.09;5065887;28;20128;-65
2022/03/29 08:28:23;;;;;;;51.17;32.78;;;;;;;12.17;53.52;101317.28;5065267;28;20068;-63
2022/03/29 08:30:51;;;;;;;52.00;32.17;;;;;;;12.18;53.37;101317.06;5065777;28;20053;-66
2022/03/29 08:33:20;;;;;;;58.58;34.00;;;;;;;12.18;53.69;101313.53;5057994;28;20125;-63
2022/03/29 08:35:49;;;;;;;53.80;32.25;;;;;;;12.19;53.42;101304.41;5066365;28;20057;-64
2022/03/29 08:38:16;;;;;;;48.88;30.70;;;;;;;12.19;53.75;101302.53;5064638;28;20040;-63
2022/03/29 08:40:57;;;;;;;54.85;33.13;;;;;;;12.20;53.52;101301.50;5065459;28;20060;-63
2022/03/29 08:43:27;;;;;;;48.22;30.10;;;;;;;12.20;53.50;101316.84;5064244;28;20095;-64
2022/03/29 08:45:56;;;;;;;51.17;32.90;;;;;;;12.22;53.59;101314.75;5065153;28;20478;-63
2022/03/29 08:48:25;;;;;;;53.30;34.10;;;;;;;12.21;53.65;101310.41;5065688;28;20072;-64
2022/03/29 08:50:54;;;;;;;56.08;33.35;;;;;;;12.20;53.63;101316.84;5066069;28;20083;-63
2022/03/29 08:53:44;;;;;;;52.75;31.27;;;;;;;12.21;53.78;101310.41;5063928;28;20488;-64
2022/03/29 08:56:13;;;;;;;54.20;33.75;;;;;;;12.19;53.93;101293.63;5065276;28;20096;-64
2022/03/29 08:58:41;;;;;;;52.50;33.72;;;;;;;12.20;53.96;101287.19;5064627;28;20079;-63
2022/03/29 09:01:09;;;;;;;53.03;31.92;;;;;;;12.19;54.01;101299.84;5065253;28;20083;-65
2022/03/29 09:03:37;;;;;;;60.67;33.97;;;;;;;12.20;54.33;101306.88;5065373;28;20057;-63
2022/03/29 09:06:07;;;;;;;52.72;32.65;;;;;;;12.17;54.25;101310.03;5064522;28;20114;-64
2022/03/29 09:08:45;;;;;;;58.30;34.17;;;;;;;12.16;54.53;101300.28;5062587;28;20056;-63
2022/03/29 09:11:15;;;;;;;57.72;34.22;;;;;;;12.18;54.28;101303.59;5065008;28;20081;-63
2022/03/29 09:13:43;;;;;;;57.33;35.45;;;;;;;12.19;54.42;101305.25;5064777;28;20077;-64
2022/03/29 09:16:30;;;;;;;62.53;37.47;;;;;;;12.16;54.69;101303.00;5064399;28;20060;-64
2022/03/29 09:18:58;;;;;;;;;;;;;;;12.17;54.63;101299.25;5064141;28;20386;-64
2022/03/29 09:21:25;;;;;;;60.10;34.15;;;;;;;12.19;54.43;101307.94;5065074;28;20252;-63
2022/03/29 09:24:08;;;;;;;57.92;35.00;;;;;;;12.19;54.65;101302.53;5064678;28;20076;-65
2022/03/29 09:26:40;;;;;;;62.33;35.80;;;;;;;12.20;54.39;101290.72;5063644;28;20064;-63
2022/03/29 09:29:16;;;;;;;59.67;36.13;;;;;;;12.19;54.55;101282.84;5064783;28;20083;-64
2022/03/29 09:31:45;;;;;;;56.17;34.78;;;;;;;12.17;54.63;101283.09;5060680;28;20072;-63
2022/03/29 09:34:15;;;;;;;63.53;36.65;;;;;;;12.18;54.93;101276.66;5065247;28;20048;-64
2022/03/29 09:36:46;;;;;;;62.50;35.67;;;;;;;12.20;54.88;101274.56;5056502;28;20110;-64
2022/03/29 09:39:30;;;;;;;61.00;35.00;;;;;;;12.22;54.79;101272.47;5065907;28;20099;-65
2022/03/29 09:42:00;;;;;;;63.03;35.75;;;;;;;12.25;54.34;101274.72;5062886;28;20052;-64
2022/03/29 09:44:36;;;;;;;64.10;37.42;;;;;;;12.23;54.42;101268.72;5070288;28;20391;-64
2022/03/29 09:47:07;;;;;;;67.63;36.80;;;;;;;12.28;54.40;101270.75;5063981;28;20037;-64
2022/03/29 09:49:56;;;;;;;60.70;35.15;;;;;;;12.25;54.63;101269.31;5057171;28;20048;-64
2022/03/29 09:52:26;;;;;;;61.75;35.92;;;;;;;12.26;54.97;101270.16;5063990;28;20049;-63
2022/03/29 09:55:15;;;;;;;65.22;36.90;;;;;;;12.21;54.97;101254.66;5064748;28;20083;-63
2022/03/29 09:57:47;;;;;;;63.88;37.72;;;;;;;12.27;54.94;101263.72;5060561;28;20057;-63
2022/03/29 10:00:17;;;;;;;66.10;37.83;;;;;;;12.25;54.75;101258.53;5044898;28;20107;-63
2022/03/29 10:02:46;;;;;;;70.70;39.75;;;;;;;12.25;55.34;101255.03;5044175;28;20099;-64
2022/03/29 10:05:17;;;;;;;68.43;38.97;;;;;;;12.24;54.91;101253.38;5050616;28;20056;-64
2022/03/29 10:07:48;;;;;;;77.05;40.40;;;;;;;12.21;55.27;101249.25;5062626;28;20064;-64
2022/03/29 10:10:16;;;;;;;70.68;39.05;;;;;;;12.19;55.45;101245.97;5064691;28;20049;-63
2022/03/29 10:12:46;;;;;;;72.18;40.45;;;;;;;12.20;55.59;101249.47;5062820;28;20049;-64
2022/03/29 10:15:34;;;;;;;72.93;40.03;;;;;;;12.20;55.44;101244.91;5065558;28;20111;-64
2022/03/29 10:18:02;;;;;;;78.85;41.28;;;;;;;12.18;55.48;101252.41;5062822;28;20084;-64
2022/03/29 10:20:31;;;;;;;78.30;40.85;;;;;;;12.16;55.54;101248.28;5063323;28;20087;-64
2022/03/29 10:23:00;;;;;;;75.60;40.38;;;;;;;12.16;55.93;101241.00;5062018;28;20133;-63
2022/03/29 10:25:31;;;;;;;74.57;40.05;;;;;;;12.15;55.54;101243.94;5063705;28;20071;-63
2022/03/29 10:28:02;;;;;;;84.22;44.10;;;;;;;12.16;55.99;101226.72;5063222;28;20391;-65
2022/03/29 10:30:33;;;;;;;80.32;44.13;;;;;;;12.15;56.06;101233.16;5059700;28;20460;-64
2022/03/29 10:33:15;;;;;;;82.03;43.88;;;;;;;12.14;56.01;101235.03;5055150;28;20079;-64
2022/03/29 10:36:01;;;;;;;87.38;44.53;;;;;;;12.14;56.10;101231.50;5044969;28;20506;-64
2022/03/29 10:38:59;;;;;;;88.35;42.47;;;;;;;12.15;56.38;101225.06;5058854;28;20064;-64
2022/03/29 10:41:54;;;;;;;79.28;42.80;;;;;;;12.18;56.18;101221.94;5055774;28;20075;-65
2022/03/29 10:44:23;;;;;;;80.63;42.45;;;;;;;12.22;56.23;101218.56;5025304;28;20470;-64
2022/03/29 10:46:52;;;;;;;81.53;42.65;;;;;;;12.26;55.88;101221.63;5032951;28;20447;-64
2022/03/29 10:49:24;;;;;;;77.55;40.30;;;;;;;12.24;55.64;101207.56;5021476;28;20224;-65
2022/03/29 10:51:54;;;;;;;73.70;39.53;;;;;;;12.27;56.06;101207.13;5021541;28;20088;-64
2022/03/29 10:54:28;;;;;;;74.60;38.78;;;;;;;12.30;55.77;101204.78;5025689;28;20088;-65
2022/03/29 10:56:57;;;;;;;71.95;39.42;;;;;;;12.30;55.84;101210.19;5020460;28;20096;-64
2022/03/29 10:59:28;;;;;;;70.97;39.10;;;;;;;12.30;56.17;101202.09;5042019;28;20145;-64
2022/03/29 11:02:09;;;;;;;71.60;38.15;;;;;;;12.33;56.04;101198.13;5040877;28;20430;-65
2022/03/29 11:04:58;;;;;;;60.78;35.58;;;;;;;12.35;55.81;101201.44;5042346;28;20046;-65
2022/03/29 11:07:26;;;;;;;64.70;36.80;;;;;;;12.37;55.85;101199.34;5019927;28;20088;-65
2022/03/29 11:10:09;;;;;;;64.10;37.05;;;;;;;12.34;55.88;101189.00;5023733;28;20060;-64
2022/03/29 11:12:40;;;;;;;60.05;34.33;;;;;;;12.37;56.20;101183.97;5019535;28;20060;-64
2022/03/29 11:15:47;;;;;;;58.17;35.33;;;;;;;12.37;56.06;101188.56;5030786;28;20053;-64
2022/03/29 11:18:50;;;;;;;51.23;32.67;;;;;;;12.34;56.14;101184.44;5028956;28;20054;-65
2022/03/29 11:21:33;;;;;;;56.65;33.33;;;;;;;12.32;56.29;101188.41;5051295;28;20048;-65
2022/03/29 11:24:03;;;;;;;55.15;32.80;;;;;;;12.33;56.80;101180.09;5065204;28;20150;-64
2022/03/29 11:26:33;;;;;;;53.38;31.90;;;;;;;12.35;56.33;101179.88;5064252;28;20059;-64
2022/03/29 11:29:02;;;;;;;47.80;30.15;;;;;;;12.34;56.36;101183.59;5062159;28;20083;-65